Time;durP1;ratioP1;P1;durP2;ratioP2;P2;SDS_P1;SDS_P2;PMS_P1;PMS_P2;Temp;Humidity;BMP_temperature;BMP_pressure;BME280_temperature;BME280_humidity;BME280_pressure;Samples;Min_cycle;Max_cycle;Signal;HPM_P1;HPM_P2
2022/04/29 04:43:06;;;;;;;4.25;2.00;;;;;;;11.00;66.93;100963.14;1789604;79;21054;-38
2022/04/29 04:45:34;;;;;;;3.27;2.15;;;;;;;11.05;67.14;100959.27;1793644;79;21058;-39
2022/04/29 04:48:06;;;;;;;4.47;1.67;;;;;;;11.08;67.27;100964.55;1788774;80;21641;-46
2022/04/29 04:50:35;;;;;;;4.15;2.10;;;;;;;11.09;67.23;100964.55;1735865;79;21070;-47
2022/04/29 04:53:02;;;;;;;7.20;1.98;;;;;;;11.09;67.06;100969.78;1790281;78;21522;-38
2022/04/29 04:55:29;;;;;;;3.00;2.02;;;;;;;11.08;66.80;100972.41;1756296;79;21089;-45
2022/04/29 04:57:57;;;;;;;8.30;1.90;;;;;;;11.06;66.82;100970.18;1792222;78;21134;-46
2022/04/29 05:00:24;;;;;;;4.40;2.25;;;;;;;11.04;66.04;100974.54;1799989;78;21620;-46
2022/04/29 05:03:10;;;;;;;10.00;2.40;;;;;;;11.04;65.33;100975.84;1795604;79;21006;-46
2022/04/29 05:05:57;;;;;;;6.17;2.25;;;;;;;11.02;64.91;100979.77;1799176;78;21011;-47
2022/04/29 05:08:24;;;;;;;2.37;2.08;;;;;;;11.01;64.83;100979.30;1803317;78;21524;-47
2022/04/29 05:10:51;;;;;;;7.78;2.20;;;;;;;11.02;65.12;100987.62;1792806;78;22542;-47
2022/04/29 05:13:19;;;;;;;6.08;1.82;;;;;;;11.02;64.92;100982.39;1798110;78;21061;-46
2022/04/29 05:15:49;;;;;;;2.92;1.70;;;;;;;11.02;64.86;100982.83;1794307;78;21042;-46
2022/04/29 05:18:17;;;;;;;6.35;2.20;;;;;;;11.02;64.97;100986.75;1797697;78;21015;-47
2022/04/29 05:20:48;;;;;;;12.95;2.67;;;;;;;11.01;65.14;100985.84;1794779;78;21114;-45
2022/04/29 05:23:17;;;;;;;3.52;2.05;;;;;;;11.00;65.58;100988.02;1783108;78;21041;-45
2022/04/29 05:25:52;;;;;;;2.87;2.08;;;;;;;11.01;66.37;100981.91;1758139;78;21552;-45
2022/04/29 05:28:26;;;;;;;9.58;2.27;;;;;;;11.03;66.59;100988.06;1796260;78;21501;-45
2022/04/29 05:31:12;;;;;;;5.90;2.25;;;;;;;11.05;66.34;100992.87;1801516;79;21009;-45
2022/04/29 05:33:51;;;;;;;4.20;2.02;;;;;;;11.10;66.61;100999.03;1678778;84;21029;-46
2022/04/29 05:36:36;;;;;;;4.87;2.10;;;;;;;11.14;66.76;101003.88;1675135;83;21128;-46
2022/04/29 05:42:22;;;;;;;4.10;2.20;;;;;;;11.25;66.56;101006.16;1686001;83;21132;-46
2022/04/29 05:44:48;;;;;;;2.58;1.72;;;;;;;11.33;65.83;101005.78;1690038;83;21048;-46
2022/04/29 05:47:18;;;;;;;4.78;2.10;;;;;;;11.42;64.31;101010.20;1687560;83;21072;-46
2022/04/29 05:49:47;;;;;;;6.30;2.25;;;;;;;11.50;63.26;101008.53;1686077;83;21033;-46
2022/04/29 05:52:13;;;;;;;3.72;2.40;;;;;;;11.59;62.73;101007.27;1689826;83;21622;-46
2022/04/29 05:54:43;;;;;;;4.95;2.10;;;;;;;11.66;62.18;101008.22;1693567;83;21038;-46
2022/04/29 05:57:10;;;;;;;6.15;2.35;;;;;;;11.70;61.90;101006.91;1682212;83;21587;-46
2022/04/29 05:59:37;;;;;;;3.72;1.92;;;;;;;11.73;61.75;101006.08;1691803;83;20992;-46
2022/04/29 06:02:08;;;;;;;5.95;1.80;;;;;;;11.77;61.25;101005.64;1677568;83;21036;-46
2022/04/29 06:04:44;;;;;;;4.58;2.10;;;;;;;11.79;60.75;101012.66;1680467;83;21606;-46
2022/04/29 06:07:11;;;;;;;1.72;1.60;;;;;;;11.84;60.70;101013.61;1691979;83;21032;-45
2022/04/29 06:09:38;;;;;;;5.58;2.02;;;;;;;11.94;60.74;101022.38;1698161;79;21009;-46
2022/04/29 06:12:09;;;;;;;3.85;1.95;;;;;;;12.02;60.71;101018.08;1784620;79;21126;-46
2022/04/29 06:14:36;;;;;;;4.87;1.92;;;;;;;12.11;60.28;101022.05;1803216;79;21021;-46
2022/04/29 06:17:18;;;;;;;4.65;2.33;;;;;;;12.18;60.42;101031.73;1737331;81;21922;-38
2022/04/29 06:20:06;;;;;;;4.22;2.12;;;;;;;12.27;60.58;101032.63;1738901;81;21116;-37
2022/04/29 06:22:47;;;;;;;2.08;1.67;;;;;;;12.40;59.18;101030.48;1731602;82;21058;-37
2022/04/29 06:25:18;;;;;;;3.17;1.98;;;;;;;12.51;56.76;101038.84;1735563;82;21113;-39
2022/04/29 06:27:45;;;;;;;3.60;1.95;;;;;;;12.67;56.61;101042.85;1738022;82;21014;-38
2022/04/29 06:30:13;;;;;;;7.78;2.42;;;;;;;12.79;54.74;101038.51;1744466;82;21529;-38
2022/04/29 06:32:43;;;;;;;2.30;1.70;;;;;;;12.94;54.06;101043.37;1730622;81;21184;-37
2022/04/29 06:35:19;;;;;;;1.77;1.60;;;;;;;13.06;52.92;101048.64;1740713;82;21081;-38
2022/04/29 06:37:47;;;;;;;2.47;1.70;;;;;;;13.19;53.13;101047.78;1739995;82;21136;-38
2022/04/29 06:40:18;;;;;;;3.60;1.70;;;;;;;13.29;52.68;101046.95;1726577;81;21330;-42
2022/04/29 06:42:52;;;;;;;5.70;1.80;;;;;;;13.34;52.50;101046.97;1716002;81;21053;-38
2022/04/29 06:45:39;;;;;;;6.72;2.05;;;;;;;13.42;51.83;101050.91;1700631;83;21037;-38
2022/04/29 06:48:27;;;;;;;3.87;1.50;;;;;;;13.47;50.74;101051.78;1616340;87;21061;-37
2022/04/29 06:51:13;;;;;;;3.10;1.60;;;;;;;13.54;50.44;101052.22;1617637;88;21619;-45
2022/04/29 06:53:59;;;;;;;2.08;1.80;;;;;;;13.60;50.53;101055.28;1630342;86;21081;-38
2022/04/29 06:56:30;;;;;;;4.35;1.98;;;;;;;13.63;50.23;101053.98;1637959;86;21080;-38
2022/04/29 06:58:58;;;;;;;1.60;1.40;;;;;;;13.63;49.74;101051.35;1642187;86;21025;-38
2022/04/29 07:01:27;;;;;;;2.83;1.70;;;;;;;13.66;48.69;101057.91;1638827;86;21053;-38
2022/04/29 07:03:55;;;;;;;1.72;1.52;;;;;;;13.73;47.98;101055.70;1640331;86;20997;-39
2022/04/29 07:06:23;;;;;;;7.20;1.75;;;;;;;13.80;47.74;101050.45;1634557;86;21110;-38
2022/04/29 07:08:50;;;;;;;1.50;1.40;;;;;;;13.91;47.78;101055.67;1637886;86;21053;-38
2022/04/29 07:11:36;;;;;;;5.03;2.17;;;;;;;13.99;46.39;101057.87;1639726;85;21544;-38
2022/04/29 07:14:08;;;;;;;4.75;1.87;;;;;;;14.06;46.02;101062.23;1634298;85;21051;-38
2022/04/29 07:16:45;;;;;;;5.37;1.60;;;;;;;14.16;45.07;101060.91;1634216;86;21748;-38
2022/04/29 07:19:20;;;;;;;4.42;1.70;;;;;;;14.20;45.96;101056.05;1639625;86;21632;-38
2022/04/29 07:21:47;;;;;;;5.80;2.08;;;;;;;14.26;46.07;101059.56;1653250;81;21628;-39
2022/04/29 07:24:14;;;;;;;2.02;1.40;;;;;;;14.36;45.24;101061.70;1745518;81;20966;-38
2022/04/29 07:26:42;;;;;;;1.85;1.40;;;;;;;14.47;45.52;101059.08;1741837;81;21025;-38
2022/04/29 07:29:11;;;;;;;2.15;1.35;;;;;;;14.57;44.83;101058.16;1728474;81;21024;-38
2022/04/29 07:31:42;;;;;;;5.00;1.77;;;;;;;14.69;44.75;101062.05;1751110;81;21094;-38
2022/04/29 07:42:48;;;;;;;2.65;1.80;;;;;;;15.12;43.50;101058.72;1694031;83;21018;-39
2022/04/29 07:45:15;;;;;;;3.08;1.55;;;;;;;15.25;44.16;101047.67;1701058;84;21444;-38
2022/04/29 07:47:50;;;;;;;2.02;1.40;;;;;;;15.36;44.17;101054.16;1697074;82;21541;-46
2022/04/29 07:50:29;;;;;;;3.05;1.62;;;;;;;15.48;43.28;101051.45;1699919;82;21128;-45
2022/04/29 07:52:55;;;;;;;2.80;1.50;;;;;;;15.56;42.58;101054.89;1686101;84;21030;-46
2022/04/29 07:55:22;;;;;;;4.65;1.40;;;;;;;15.61;42.62;101048.27;1702411;82;21569;-45
2022/04/29 07:57:49;;;;;;;1.77;1.45;;;;;;;15.69;42.55;101049.09;1698714;84;20984;-45
2022/04/29 08:00:17;;;;;;;2.17;1.60;;;;;;;15.73;42.37;101047.31;1754786;79;21032;-45
2022/04/29 08:02:46;;;;;;;1.85;1.20;;;;;;;15.69;40.77;101053.92;1713451;80;21030;-46
2022/04/29 08:05:14;;;;;;;3.27;1.72;;;;;;;15.66;41.97;101044.73;1687140;82;21550;-46
2022/04/29 08:07:43;;;;;;;3.45;1.52;;;;;;;15.71;41.72;101042.03;1717416;82;21007;-45
2022/04/29 08:10:10;;;;;;;1.50;1.12;;;;;;;15.79;41.59;101035.38;1688505;84;21077;-45
2022/04/29 08:12:38;;;;;;;6.75;1.70;;;;;;;15.83;41.28;101033.12;1696179;83;21006;-46
2022/04/29 08:15:09;;;;;;;3.50;1.27;;;;;;;15.86;41.56;101033.11;1690307;84;21008;-46
2022/04/29 08:17:47;;;;;;;2.40;1.70;;;;;;;15.89;41.87;101032.64;1711802;82;21042;-46
2022/04/29 08:20:15;;;;;;;6.47;2.00;;;;;;;15.95;41.94;101022.47;1702478;83;21004;-46
2022/04/29 08:22:44;;;;;;;2.75;1.60;;;;;;;15.99;42.03;101026.80;1755108;81;21539;-46
2022/04/29 08:25:12;;;;;;;4.65;1.65;;;;;;;16.02;41.20;101023.27;1694446;82;21077;-46
2022/04/29 08:27:41;;;;;;;7.47;1.50;;;;;;;15.96;40.98;101021.57;1693724;83;21037;-46
2022/04/29 08:30:10;;;;;;;3.35;1.70;;;;;;;15.88;40.63;101020.31;1750866;79;21038;-46
2022/04/29 08:32:43;;;;;;;4.53;1.52;;;;;;;15.91;40.99;101015.02;1749248;79;21053;-46
2022/04/29 08:35:17;;;;;;;3.05;1.65;;;;;;;16.03;41.33;101010.05;1754075;81;21037;-46
2022/04/29 08:37:46;;;;;;;3.17;1.47;;;;;;;16.14;41.20;101009.94;1756111;81;21638;-46
2022/04/29 08:40:12;;;;;;;6.15;1.42;;;;;;;16.22;41.40;101011.58;1755155;79;20992;-47
2022/04/29 08:42:41;;;;;;;4.70;1.42;;;;;;;16.32;41.46;101004.88;1759394;79;21037;-47
2022/04/29 08:45:14;;;;;;;1.75;1.20;;;;;;;16.43;40.76;101010.45;1791971;78;21565;-47
2022/04/29 08:47:57;;;;;;;2.58;1.55;;;;;;;16.50;40.38;101007.28;1743370;81;21501;-47
2022/04/29 08:50:26;;;;;;;1.95;1.27;;;;;;;16.57;39.91;101000.14;1728932;81;21123;-47
2022/04/29 08:52:54;;;;;;;1.98;1.27;;;;;;;16.64;38.95;100996.52;1736916;81;21501;-47
2022/04/29 09:00:51;;;;;;;2.02;1.50;;;;;;;16.80;38.75;100986.20;1744516;81;21062;-47
2022/04/29 09:03:21;;;;;;;3.50;1.45;;;;;;;16.78;38.14;100984.03;1734301;81;21080;-46
2022/04/29 09:05:50;;;;;;;3.33;1.20;;;;;;;16.78;39.24;100978.75;1739332;81;21509;-47
2022/04/29 09:08:19;;;;;;;1.98;0.90;;;;;;;16.91;38.30;100979.44;1738928;81;20979;-47
2022/04/29 09:10:57;;;;;;;3.50;1.17;;;;;;;17.06;38.29;100979.66;1741119;81;21021;-47
2022/04/29 09:13:27;;;;;;;1.80;1.00;;;;;;;17.16;37.25;100975.95;1748058;81;21000;-47
2022/04/29 09:16:01;;;;;;;1.67;1.02;;;;;;;17.19;37.26;100978.55;1739940;81;21046;-47
2022/04/29 09:18:34;;;;;;;2.25;1.30;;;;;;;17.20;37.25;100981.16;1707366;81;21062;-47
2022/04/29 09:21:04;;;;;;;1.40;1.25;;;;;;;17.24;37.16;100976.71;1745302;81;21570;-47
2022/04/29 09:23:32;;;;;;;6.95;1.10;;;;;;;17.21;36.77;100967.49;1784973;78;21006;-47
2022/04/29 09:26:30;;;;;;;3.10;1.25;;;;;;;17.12;36.61;100972.95;1795523;78;21080;-47
2022/04/29 09:29:19;;;;;;;4.72;1.95;;;;;;;17.07;35.91;100970.83;1724540;82;21083;-47
2022/04/29 09:32:01;;;;;;;3.77;1.25;;;;;;;17.06;35.62;100959.83;1795458;78;21097;-45
2022/04/29 09:34:53;;;;;;;4.23;1.00;;;;;;;17.05;36.48;100960.70;1788146;78;20978;-45
2022/04/29 09:37:27;;;;;;;2.58;1.30;;;;;;;17.09;36.83;100958.45;1797815;78;21299;-45
2022/04/29 09:40:03;;;;;;;1.67;1.17;;;;;;;17.23;37.27;100953.81;1796466;78;20938;-45
2022/04/29 09:42:41;;;;;;;1.60;1.32;;;;;;;17.34;36.43;100953.19;1798575;78;21907;-46
2022/04/29 09:45:22;;;;;;;3.00;1.55;;;;;;;17.37;36.78;100957.53;1720590;81;21395;-45
2022/04/29 09:47:56;;;;;;;4.70;1.60;;;;;;;17.45;36.98;100960.48;1742237;81;20991;-45
2022/04/29 09:50:24;;;;;;;7.05;1.37;;;;;;;17.51;36.15;100954.18;1741893;80;21029;-45
2022/04/29 09:52:51;;;;;;;2.60;1.45;;;;;;;17.46;36.09;100967.52;1641273;85;21023;-46
2022/04/29 09:55:19;;;;;;;2.52;1.40;;;;;;;17.40;35.64;100964.11;1745320;81;21024;-46
2022/04/29 09:57:58;;;;;;;1.57;1.10;;;;;;;17.34;35.25;100969.05;1742851;81;21004;-45
2022/04/29 10:00:25;;;;;;;1.42;1.10;;;;;;;17.25;34.31;100973.16;1738528;81;21034;-45
2022/04/29 10:02:52;;;;;;;1.12;1.00;;;;;;;17.15;34.14;100968.47;1752281;82;21006;-46
2022/04/29 10:05:20;;;;;;;1.80;1.32;;;;;;;17.07;35.22;100963.77;1739635;81;21019;-46
2022/04/29 10:07:49;;;;;;;6.35;1.35;;;;;;;16.98;35.61;100967.86;1732137;80;21001;-45
2022/04/29 10:10:17;;;;;;;2.70;1.22;;;;;;;16.91;35.39;100966.22;1744364;81;21604;-45
2022/04/29 10:12:50;;;;;;;3.45;1.45;;;;;;;16.86;35.12;100970.25;1745115;80;21833;-46
2022/04/29 10:15:25;;;;;;;3.22;1.50;;;;;;;16.79;35.78;100965.09;1740078;81;21009;-46
2022/04/29 10:21:15;;;;;;;1.55;1.20;;;;;;;16.65;35.68;100970.55;1738803;81;21061;-46
2022/04/29 10:23:50;;;;;;;3.92;1.05;;;;;;;16.58;35.52;100964.45;1746516;80;20988;-46
2022/04/29 10:26:20;;;;;;;2.87;1.47;;;;;;;16.55;34.95;100967.61;1739525;80;21562;-46
2022/04/29 10:28:49;;;;;;;2.87;1.25;;;;;;;16.52;34.57;100967.63;1739812;80;21583;-46
2022/04/29 10:31:18;;;;;;;1.60;1.25;;;;;;;16.50;34.74;100961.06;1745012;81;21016;-46
2022/04/29 10:33:45;;;;;;;4.92;1.12;;;;;;;16.50;34.22;100968.53;1721593;81;21001;-46
2022/04/29 10:36:16;;;;;;;1.57;1.32;;;;;;;16.50;34.38;100972.94;1734908;81;21007;-46
2022/04/29 10:38:48;;;;;;;3.83;1.37;;;;;;;16.48;34.48;100971.66;1747689;81;21036;-46
2022/04/29 10:41:25;;;;;;;5.78;1.65;;;;;;;16.47;34.46;100973.00;1739883;81;21952;-47
2022/04/29 10:43:57;;;;;;;3.17;1.07;;;;;;;16.45;34.16;100968.17;1766310;79;21521;-46
2022/04/29 10:46:36;;;;;;;2.98;1.10;;;;;;;16.47;34.34;100967.72;1795014;78;21082;-46
2022/04/29 10:49:27;;;;;;;1.87;1.20;;;;;;;16.53;34.37;100971.59;1767241;79;21572;-46
2022/04/29 10:52:25;;;;;;;2.30;1.30;;;;;;;16.61;35.00;100971.03;1796657;78;20959;-46
2022/04/29 10:55:03;;;;;;;2.33;1.20;;;;;;;16.67;35.03;100972.71;1698525;82;21090;-47
2022/04/29 10:57:48;;;;;;;2.17;1.50;;;;;;;16.67;35.11;100974.91;1687940;82;20995;-46
2022/04/29 11:00:23;;;;;;;5.72;1.30;;;;;;;16.63;34.91;100977.60;1692880;82;21088;-46
2022/04/29 11:02:52;;;;;;;1.75;0.98;;;;;;;16.52;35.41;100982.16;1714578;82;20976;-46
2022/04/29 11:05:35;;;;;;;2.75;1.52;;;;;;;16.38;35.86;100972.66;1708352;82;21867;-46
2022/04/29 11:08:07;;;;;;;;;;;;;;;16.36;36.18;100978.88;1708371;82;21442;-46
2022/04/29 11:10:58;;;;;;;1.87;1.20;;;;;;;16.35;36.55;100979.73;1709795;82;20181;-46
2022/04/29 11:13:27;;;;;;;2.45;2.15;;;;;;;16.27;36.81;100981.61;1703458;83;21487;-46
2022/04/29 11:16:15;;;;;;;5.00;2.40;;;;;;;16.21;35.82;100974.64;1713064;82;21003;-46
2022/04/29 11:18:46;;;;;;;5.83;2.33;;;;;;;16.13;36.45;100977.39;1716042;82;21017;-46
2022/04/29 11:26:49;;;;;;;5.85;1.50;;;;;;;15.90;36.23;100974.14;1708248;82;21096;-46
2022/04/29 11:29:17;;;;;;;3.65;1.30;;;;;;;15.87;36.21;100976.34;1702370;83;21009;-46
2022/04/29 11:31:56;;;;;;;1.42;1.02;;;;;;;15.86;36.27;100976.37;1760973;79;21644;-46
2022/04/29 11:34:22;;;;;;;3.17;1.10;;;;;;;15.83;36.62;100980.35;1797432;79;20962;-46
2022/04/29 11:36:55;;;;;;;1.37;1.02;;;;;;;15.77;36.41;100982.64;1798615;79;21401;-46
2022/04/29 11:39:21;;;;;;;1.75;1.45;;;;;;;15.68;36.78;100977.45;1796434;79;21021;-49
2022/04/29 11:41:55;;;;;;;3.50;1.00;;;;;;;15.64;37.10;100973.08;1802293;79;21674;-46
2022/04/29 11:44:42;;;;;;;3.50;1.17;;;;;;;15.65;37.55;100977.46;1792519;79;20982;-47
2022/04/29 11:47:09;;;;;;;4.20;1.12;;;;;;;15.64;37.10;100973.08;1802069;79;21060;-46
2022/04/29 11:49:38;;;;;;;3.98;1.00;;;;;;;15.61;36.65;100971.78;1802849;79;21021;-46
2022/04/29 11:52:30;;;;;;;5.40;1.32;;;;;;;15.56;37.59;100966.98;1799746;79;20970;-46
2022/04/29 11:55:01;;;;;;;4.78;1.17;;;;;;;15.50;37.45;100971.00;1801091;79;21061;-46
2022/04/29 11:57:31;;;;;;;1.25;1.02;;;;;;;15.37;37.84;100972.89;1739308;82;21080;-46
2022/04/29 11:59:58;;;;;;;2.30;1.10;;;;;;;15.26;37.86;100976.06;1741016;81;21121;-46
2022/04/29 12:02:25;;;;;;;1.95;1.22;;;;;;;15.20;37.93;100968.20;1799294;79;21053;-46
2022/04/29 12:05:01;;;;;;;5.08;1.40;;;;;;;15.14;37.43;100963.86;1808827;79;21640;-46
2022/04/29 12:07:32;;;;;;;1.15;1.05;;;;;;;15.05;38.02;100959.52;1804532;79;21001;-46
2022/04/29 12:10:01;;;;;;;3.65;1.17;;;;;;;14.95;38.04;100960.47;1797312;78;21020;-46
2022/04/29 12:12:30;;;;;;;7.87;1.40;;;;;;;14.88;37.67;100959.64;1783184;79;21025;-46
2022/04/29 12:14:59;;;;;;;4.55;1.50;;;;;;;14.86;37.60;100957.47;1803312;79;21157;-46
2022/04/29 12:17:40;;;;;;;3.05;1.20;;;;;;;14.88;37.86;100960.09;1806664;79;21029;-46
2022/04/29 12:20:09;;;;;;;5.50;1.57;;;;;;;14.88;38.42;100957.45;1801434;79;21033;-46
2022/04/29 12:22:39;;;;;;;4.15;1.27;;;;;;;14.83;38.89;100955.29;1801100;79;21549;-46
2022/04/29 12:25:37;;;;;;;3.17;1.55;;;;;;;14.80;38.91;100956.64;1796319;79;21045;-46
2022/04/29 12:28:18;;;;;;;3.02;1.62;;;;;;;14.81;38.94;100955.75;1732596;82;21051;-47
2022/04/29 12:37:01;;;;;;;1.85;1.30;;;;;;;14.81;38.86;100950.04;1798814;79;21017;-45
2022/04/29 12:39:41;;;;;;;3.70;1.35;;;;;;;14.80;38.57;100945.66;1794419;79;21045;-46
2022/04/29 12:42:10;;;;;;;5.25;1.25;;;;;;;14.83;38.63;100944.75;1804037;79;21011;-45
2022/04/29 12:47:56;;;;;;;2.40;1.55;;;;;;;14.86;38.88;100939.03;1730732;81;21008;-45
2022/04/29 12:50:37;;;;;;;3.40;1.37;;;;;;;14.95;38.99;100937.20;1798845;79;21066;-45
2022/04/29 12:53:10;;;;;;;1.67;1.20;;;;;;;15.01;38.80;100934.52;1788211;79;20998;-45
2022/04/29 12:55:48;;;;;;;4.60;1.57;;;;;;;15.03;38.34;100934.95;1725905;82;21090;-45
2022/04/29 12:58:26;;;;;;;5.65;1.82;;;;;;;15.05;38.41;100937.56;1735492;82;21477;-38
2022/04/29 13:01:00;;;;;;;5.92;1.60;;;;;;;15.12;38.58;100932.66;1779089;79;21076;-46
2022/04/29 13:03:31;;;;;;;1.62;1.20;;;;;;;15.16;38.71;100944.49;1752687;79;21028;-45
2022/04/29 13:06:06;;;;;;;2.45;1.47;;;;;;;15.17;38.39;100945.36;1751706;81;21533;-46
2022/04/29 13:08:38;;;;;;;5.55;1.35;;;;;;;15.19;38.41;100947.56;1752640;79;21014;-45
2022/04/29 13:11:05;;;;;;;2.50;1.50;;;;;;;15.22;37.84;100940.94;1737800;82;21053;-45
2022/04/29 13:13:35;;;;;;;4.95;1.35;;;;;;;15.22;37.93;100936.98;1796529;79;21050;-39
2022/04/29 13:16:05;;;;;;;1.90;1.30;;;;;;;15.22;37.90;100940.06;1805208;79;21026;-38
2022/04/29 13:18:35;;;;;;;2.45;1.20;;;;;;;15.20;38.12;100940.08;1810658;79;21542;-46
2022/04/29 13:21:06;;;;;;;5.50;1.57;;;;;;;15.17;37.89;100942.28;1811398;79;21105;-39
